TimeEST,TemperatureF,Dew PointF,Humidity,Sea Level PressureIn,VisibilityMPH,Wind Direction,Wind SpeedMPH,Gust SpeedMPH,PrecipitationIn,Events,Conditions,WindDirDegrees,DateUTC
12:53 AM,75.9,73.0,91,30.01,10.0,SSE,6.9,-,N/A,,Mostly Cloudy,150,2012-12-09 05:53:00
1:53 AM,75.9,72.0,87,30.01,10.0,SSE,4.6,-,N/A,,Mostly Cloudy,150,2012-12-09 06:53:00
2:53 AM,75.9,72.0,87,30.00,10.0,South,4.6,-,N/A,,Mostly Cloudy,170,2012-12-09 07:53:00
3:53 AM,75.9,72.0,87,30.01,10.0,SSE,3.5,-,N/A,,Mostly Cloudy,160,2012-12-09 08:53:00
4:53 AM,73.9,72.0,93,30.01,10.0,Calm,Calm,-,N/A,,Scattered Clouds,0,2012-12-09 09:53:00
5:53 AM,73.0,71.1,93,30.02,10.0,Calm,Calm,-,0.01,,Scattered Clouds,0,2012-12-09 10:53:00
6:53 AM,72.0,71.1,97,30.04,10.0,Calm,Calm,-,N/A,,Scattered Clouds,0,2012-12-09 11:53:00
7:53 AM,73.0,71.1,93,30.06,10.0,North,3.5,-,N/A,,Partly Cloudy,360,2012-12-09 12:53:00
8:48 AM,75.2,73.4,94,30.07,10.0,NNE,3.5,-,N/A,,Mostly Cloudy,20,2012-12-09 13:48:00
8:53 AM,75.9,73.0,91,30.08,10.0,North,3.5,-,N/A,,Mostly Cloudy,360,2012-12-09 13:53:00
9:53 AM,80.1,73.0,79,30.09,10.0,Calm,Calm,-,N/A,,Mostly Cloudy,0,2012-12-09 14:53:00
10:53 AM,80.1,73.0,79,30.08,10.0,South,4.6,-,N/A,,Mostly Cloudy,170,2012-12-09 15:53:00
11:41 AM,82.4,73.4,74,30.06,10.0,SSE,8.1,-,N/A,,Scattered Clouds,160,2012-12-09 16:41:00
11:53 AM,82.0,73.0,74,30.06,10.0,SSE,6.9,-,N/A,,Mostly Cloudy,150,2012-12-09 16:53:00
12:53 PM,82.9,72.0,69,30.02,10.0,SSE,8.1,-,N/A,,Partly Cloudy,160,2012-12-09 17:53:00
1:53 PM,82.9,71.1,67,30.00,10.0,SE,10.4,-,N/A,,Scattered Clouds,130,2012-12-09 18:53:00
2:53 PM,82.9,72.0,69,29.99,10.0,SE,11.5,-,N/A,,Partly Cloudy,140,2012-12-09 19:53:00
3:53 PM,81.0,72.0,74,29.99,10.0,SSE,10.4,-,N/A,,Partly Cloudy,150,2012-12-09 20:53:00
4:53 PM,79.0,73.0,82,30.00,10.0,SSE,8.1,-,N/A,,Partly Cloudy,150,2012-12-09 21:53:00
5:53 PM,78.1,73.0,84,30.01,10.0,SSE,6.9,-,N/A,,Partly Cloudy,160,2012-12-09 22:53:00
6:53 PM,77.0,73.0,88,30.03,10.0,SSE,4.6,-,N/A,,Clear,150,2012-12-09 23:53:00
7:53 PM,75.9,73.0,91,30.03,10.0,SSE,4.6,-,N/A,,Partly Cloudy,150,2012-12-10 00:53:00
8:53 PM,75.9,73.0,91,30.04,10.0,SE,4.6,-,N/A,,Partly Cloudy,140,2012-12-10 01:53:00
9:53 PM,75.9,73.0,91,30.04,10.0,SSE,3.5,-,N/A,,Partly Cloudy,150,2012-12-10 02:53:00
10:53 PM,75.0,73.0,94,30.04,10.0,South,3.5,-,N/A,,Partly Cloudy,180,2012-12-10 03:53:00
11:53 PM,75.9,73.0,91,30.03,10.0,Calm,Calm,-,N/A,,Partly Cloudy,0,2012-12-10 04:53:00